DKH9122 ZUZY-ZULZ
Flight info
| Callsign | DKH9122 |
|---|---|
| Flight time | 0h 39m |
| Altitude | 23600 |
| Route | P440 J112 P696 W3 EGARA W91 URGUS W30 MAVRA H57 XYO |
| Aircraft | A320/M-SDE3FGHIRWY/LB1 |
Departure
| Time | 2026-05-04 05:03 |
|---|---|
| Airport | Zunyi Xinzhou Airport (ZUZY) |
Arrival
| Time | 2026-05-04 05:42 |
|---|---|
| Airport | Luzhou Yunlong Airport (ZULZ) |
| Time | Latitude | Longitude | Altitude | Speed | Heading |
|---|---|---|---|---|---|
| 2026-05-04 04:47 | 27.80569 | 107.24800 | 2737 ft | 0 kts | 92° |
| 2026-05-04 04:55 | 27.80569 | 107.24801 | 2737 ft | 1 kts | 92° |
| 2026-05-04 04:55 | 27.80585 | 107.24856 | 2743 ft | 10 kts | 37° |
| 2026-05-04 04:56 | 27.80637 | 107.24834 | 2738 ft | 8 kts | 315° |
| 2026-05-04 04:56 | 27.80658 | 107.24765 | 2738 ft | 15 kts | 277° |
| 2026-05-04 04:56 | 27.80665 | 107.24635 | 2742 ft | 15 kts | 270° |
| 2026-05-04 04:56 | 27.80712 | 107.24578 | 2739 ft | 10 kts | 349° |
| 2026-05-04 04:57 | 27.80774 | 107.24580 | 2742 ft | 9 kts | 4° |
| 2026-05-04 04:57 | 27.80896 | 107.24588 | 2740 ft | 26 kts | 3° |
| 2026-05-04 04:57 | 27.81075 | 107.24598 | 2742 ft | 25 kts | 2° |
| 2026-05-04 04:57 | 27.81250 | 107.24607 | 2740 ft | 28 kts | 3° |
| 2026-05-04 04:58 | 27.81442 | 107.24617 | 2738 ft | 27 kts | 2° |
| 2026-05-04 04:58 | 27.81625 | 107.24626 | 2735 ft | 26 kts | 2° |
| 2026-05-04 04:58 | 27.81796 | 107.24635 | 2736 ft | 24 kts | 4° |
| 2026-05-04 04:58 | 27.81980 | 107.24646 | 2736 ft | 28 kts | 3° |
| 2026-05-04 04:59 | 27.82128 | 107.24654 | 2741 ft | 25 kts | 2° |
| 2026-05-04 05:01 | 27.82214 | 107.24658 | 2742 ft | 23 kts | 3° |
| 2026-05-04 05:02 | 27.82326 | 107.24655 | 2743 ft | 11 kts | 341° |
| 2026-05-04 05:02 | 27.82349 | 107.24666 | 2747 ft | 1 kts | 141° |
| 2026-05-04 05:02 | 27.82259 | 107.24661 | 2742 ft | 42 kts | 183° |
| 2026-05-04 05:02 | 27.81697 | 107.24631 | 2735 ft | 115 kts | 182° |
| 2026-05-04 05:03 | 27.80709 | 107.24580 | 2790 ft | 163 kts | 183° |
| 2026-05-04 05:03 | 27.79590 | 107.24529 | 3591 ft | 160 kts | 182° |
| 2026-05-04 05:04 | 27.76300 | 107.24342 | 5721 ft | 157 kts | 189° |
| 2026-05-04 05:04 | 27.75256 | 107.23817 | 6131 ft | 176 kts | 208° |
| 2026-05-04 05:04 | 27.74119 | 107.23148 | 6445 ft | 198 kts | 205° |
| 2026-05-04 05:06 | 27.70714 | 107.13927 | 10855 ft | 295 kts | 321° |
| 2026-05-04 05:06 | 27.72351 | 107.12555 | 11723 ft | 299 kts | 324° |
| 2026-05-04 05:06 | 27.74066 | 107.11192 | 12585 ft | 304 kts | 323° |
| 2026-05-04 05:07 | 27.75785 | 107.09762 | 13324 ft | 314 kts | 321° |
| 2026-05-04 05:07 | 27.77562 | 107.08174 | 13670 ft | 336 kts | 319° |
| 2026-05-04 05:07 | 27.79381 | 107.06439 | 14270 ft | 346 kts | 318° |
| 2026-05-04 05:09 | 27.91741 | 106.90109 | 20348 ft | 350 kts | 293° |
| 2026-05-04 05:09 | 27.92735 | 106.87600 | 21048 ft | 350 kts | 293° |
| 2026-05-04 05:10 | 27.93735 | 106.85087 | 21717 ft | 351 kts | 292° |
| 2026-05-04 05:10 | 27.94738 | 106.82568 | 22366 ft | 352 kts | 292° |
| 2026-05-04 05:10 | 27.95798 | 106.80055 | 22953 ft | 356 kts | 297° |
| 2026-05-04 05:10 | 27.97310 | 106.77852 | 23577 ft | 365 kts | 310° |
| 2026-05-04 05:11 | 27.99359 | 106.76144 | 23749 ft | 372 kts | 326° |
| 2026-05-04 05:11 | 28.01793 | 106.75198 | 23783 ft | 368 kts | 343° |
| 2026-05-04 05:11 | 28.04340 | 106.75049 | 23787 ft | 366 kts | 352° |
| 2026-05-04 05:11 | 28.06871 | 106.75070 | 23787 ft | 361 kts | 350° |
| 2026-05-04 05:12 | 28.09276 | 106.74590 | 23783 ft | 343 kts | 331° |
| 2026-05-04 05:12 | 28.11311 | 106.73308 | 23782 ft | 330 kts | 315° |
| 2026-05-04 05:12 | 28.12874 | 106.71465 | 23782 ft | 321 kts | 300° |
| 2026-05-04 05:12 | 28.13863 | 106.69275 | 23777 ft | 315 kts | 286° |
| 2026-05-04 05:13 | 28.14255 | 106.66857 | 23783 ft | 313 kts | 272° |
| 2026-05-04 05:13 | 28.14013 | 106.64408 | 23781 ft | 315 kts | 258° |
| 2026-05-04 05:13 | 28.13279 | 106.62055 | 23768 ft | 318 kts | 253° |
| 2026-05-04 05:13 | 28.12501 | 106.59708 | 23775 ft | 319 kts | 253° |
| 2026-05-04 05:14 | 28.11721 | 106.57357 | 23777 ft | 319 kts | 253° |
| 2026-05-04 05:14 | 28.10941 | 106.55006 | 23779 ft | 319 kts | 253° |
| 2026-05-04 05:14 | 28.10164 | 106.52658 | 23778 ft | 318 kts | 253° |
| 2026-05-04 05:14 | 28.09394 | 106.50344 | 23779 ft | 318 kts | 253° |
| 2026-05-04 05:15 | 28.08615 | 106.47998 | 23773 ft | 318 kts | 253° |
| 2026-05-04 05:15 | 28.07839 | 106.45655 | 23772 ft | 318 kts | 253° |
| 2026-05-04 05:15 | 28.07061 | 106.43314 | 23769 ft | 317 kts | 253° |
| 2026-05-04 05:15 | 28.06282 | 106.40975 | 23767 ft | 317 kts | 253° |
| 2026-05-04 05:16 | 28.05503 | 106.38639 | 23765 ft | 317 kts | 253° |
| 2026-05-04 05:16 | 28.04725 | 106.36304 | 23766 ft | 317 kts | 253° |
| 2026-05-04 05:16 | 28.03947 | 106.33971 | 23753 ft | 316 kts | 253° |
| 2026-05-04 05:16 | 28.03181 | 106.31671 | 23748 ft | 316 kts | 254° |
| 2026-05-04 05:17 | 28.02405 | 106.29350 | 23748 ft | 315 kts | 253° |
| 2026-05-04 05:17 | 28.01629 | 106.27027 | 23753 ft | 316 kts | 253° |
| 2026-05-04 05:17 | 28.00851 | 106.24702 | 23756 ft | 316 kts | 254° |
| 2026-05-04 05:17 | 28.00074 | 106.22388 | 23761 ft | 315 kts | 254° |
| 2026-05-04 05:18 | 27.99298 | 106.20070 | 23755 ft | 315 kts | 253° |
| 2026-05-04 05:18 | 27.98523 | 106.17752 | 23725 ft | 315 kts | 253° |
| 2026-05-04 05:18 | 27.97754 | 106.15433 | 23757 ft | 315 kts | 255° |
| 2026-05-04 05:18 | 27.97292 | 106.13035 | 23750 ft | 311 kts | 267° |
| 2026-05-04 05:19 | 27.97342 | 106.10635 | 23752 ft | 310 kts | 278° |
| 2026-05-04 05:19 | 27.97707 | 106.08231 | 23742 ft | 310 kts | 279° |
| 2026-05-04 05:19 | 27.98073 | 106.05830 | 23744 ft | 310 kts | 279° |
| 2026-05-04 05:19 | 27.98437 | 106.03432 | 23738 ft | 309 kts | 279° |
| 2026-05-04 05:20 | 27.98798 | 106.01033 | 23736 ft | 309 kts | 279° |
| 2026-05-04 05:20 | 27.99156 | 105.98635 | 23744 ft | 309 kts | 279° |
| 2026-05-04 05:20 | 27.99513 | 105.96242 | 23739 ft | 309 kts | 279° |
| 2026-05-04 05:20 | 27.99864 | 105.93878 | 23741 ft | 309 kts | 279° |
| 2026-05-04 05:21 | 28.00221 | 105.91479 | 23738 ft | 310 kts | 279° |
| 2026-05-04 05:21 | 28.00581 | 105.89074 | 23730 ft | 310 kts | 279° |
| 2026-05-04 05:21 | 28.00940 | 105.86671 | 23730 ft | 309 kts | 279° |
| 2026-05-04 05:21 | 28.01295 | 105.84272 | 23741 ft | 309 kts | 279° |
| 2026-05-04 05:22 | 28.01648 | 105.81874 | 23731 ft | 309 kts | 279° |
| 2026-05-04 05:22 | 28.02001 | 105.79482 | 23730 ft | 308 kts | 279° |
| 2026-05-04 05:22 | 28.02353 | 105.77088 | 23710 ft | 308 kts | 278° |
| 2026-05-04 05:22 | 28.02702 | 105.74728 | 23713 ft | 308 kts | 279° |
| 2026-05-04 05:23 | 28.03057 | 105.72335 | 23709 ft | 308 kts | 279° |
| 2026-05-04 05:23 | 28.03413 | 105.69941 | 23708 ft | 309 kts | 279° |
| 2026-05-04 05:23 | 28.03772 | 105.67533 | 23714 ft | 310 kts | 279° |
| 2026-05-04 05:23 | 28.04126 | 105.65129 | 23708 ft | 310 kts | 278° |
| 2026-05-04 05:24 | 28.04476 | 105.62727 | 23696 ft | 309 kts | 279° |
| 2026-05-04 05:24 | 28.04826 | 105.60329 | 23696 ft | 309 kts | 278° |
| 2026-05-04 05:24 | 28.05396 | 105.57990 | 23696 ft | 310 kts | 290° |
| 2026-05-04 05:24 | 28.06471 | 105.55864 | 23708 ft | 315 kts | 303° |
| 2026-05-04 05:25 | 28.07884 | 105.54005 | 23484 ft | 316 kts | 306° |
| 2026-05-04 05:25 | 28.09336 | 105.52140 | 22982 ft | 314 kts | 306° |
| 2026-05-04 05:25 | 28.10772 | 105.50293 | 22566 ft | 310 kts | 307° |
| 2026-05-04 05:25 | 28.12186 | 105.48471 | 22150 ft | 307 kts | 307° |
| 2026-05-04 05:26 | 28.13582 | 105.46663 | 21741 ft | 303 kts | 307° |
| 2026-05-04 05:26 | 28.14965 | 105.44876 | 21342 ft | 300 kts | 308° |
| 2026-05-04 05:26 | 28.16583 | 105.43353 | 20872 ft | 308 kts | 324° |
| 2026-05-04 05:26 | 28.18606 | 105.42461 | 20390 ft | 320 kts | 342° |
| 2026-05-04 05:27 | 28.20836 | 105.42355 | 19901 ft | 332 kts | 358° |
| 2026-05-04 05:28 | 28.37184 | 105.44079 | 16355 ft | 340 kts | 2° |
| 2026-05-04 05:29 | 28.39538 | 105.44324 | 15873 ft | 340 kts | 2° |
| 2026-05-04 05:29 | 28.41892 | 105.44568 | 15411 ft | 340 kts | 3° |
| 2026-05-04 05:29 | 28.44247 | 105.44806 | 14981 ft | 339 kts | 3° |
| 2026-05-04 05:29 | 28.46591 | 105.45038 | 14502 ft | 339 kts | 3° |
| 2026-05-04 05:31 | 28.61209 | 105.41449 | 11175 ft | 302 kts | 328° |
| 2026-05-04 05:31 | 28.63018 | 105.40220 | 10783 ft | 301 kts | 329° |
| 2026-05-04 05:32 | 28.64819 | 105.38993 | 10365 ft | 302 kts | 329° |
| 2026-05-04 05:32 | 28.66602 | 105.37779 | 10084 ft | 296 kts | 328° |
| 2026-05-04 05:32 | 28.68354 | 105.36587 | 9406 ft | 293 kts | 328° |
| 2026-05-04 05:33 | 28.71772 | 105.34265 | 8399 ft | 287 kts | 328° |
| 2026-05-04 05:33 | 28.73492 | 105.33094 | 7933 ft | 289 kts | 328° |
| 2026-05-04 05:33 | 28.75220 | 105.31914 | 7461 ft | 290 kts | 328° |
| 2026-05-04 05:33 | 28.76947 | 105.30739 | 7143 ft | 285 kts | 328° |
| 2026-05-04 05:34 | 28.78605 | 105.29612 | 7075 ft | 270 kts | 328° |
| 2026-05-04 05:34 | 28.80177 | 105.28543 | 6978 ft | 257 kts | 328° |
| 2026-05-04 05:34 | 28.81660 | 105.27534 | 6868 ft | 246 kts | 328° |
| 2026-05-04 05:34 | 28.83102 | 105.26564 | 6767 ft | 236 kts | 332° |
| 2026-05-04 05:35 | 28.84647 | 105.25893 | 6488 ft | 241 kts | 342° |
| 2026-05-04 05:35 | 28.86264 | 105.25314 | 6078 ft | 246 kts | 342° |
| 2026-05-04 05:35 | 28.87906 | 105.24728 | 5687 ft | 249 kts | 342° |
| 2026-05-04 05:35 | 28.89551 | 105.24141 | 5296 ft | 245 kts | 342° |
| 2026-05-04 05:36 | 28.91162 | 105.23566 | 4920 ft | 240 kts | 342° |
| 2026-05-04 05:36 | 28.92742 | 105.23002 | 4542 ft | 236 kts | 342° |
| 2026-05-04 05:36 | 28.94310 | 105.22555 | 4179 ft | 232 kts | 359° |
| 2026-05-04 05:36 | 28.95819 | 105.23002 | 3897 ft | 228 kts | 36° |
| 2026-05-04 05:37 | 28.96812 | 105.24291 | 3864 ft | 208 kts | 69° |
| 2026-05-04 05:37 | 28.97265 | 105.25809 | 3871 ft | 197 kts | 75° |
| 2026-05-04 05:37 | 28.97671 | 105.27287 | 3885 ft | 194 kts | 76° |
| 2026-05-04 05:38 | 28.98396 | 105.29908 | 3796 ft | 153 kts | 75° |
| 2026-05-04 05:38 | 28.98709 | 105.31044 | 3648 ft | 147 kts | 76° |
| 2026-05-04 05:38 | 28.99007 | 105.32125 | 3478 ft | 141 kts | 75° |
| 2026-05-04 05:38 | 28.99293 | 105.33169 | 3290 ft | 137 kts | 76° |
| 2026-05-04 05:39 | 28.99577 | 105.34195 | 3113 ft | 134 kts | 76° |
| 2026-05-04 05:39 | 29.00142 | 105.36249 | 2763 ft | 136 kts | 74° |
| 2026-05-04 05:39 | 29.00426 | 105.37280 | 2596 ft | 135 kts | 74° |
| 2026-05-04 05:40 | 29.00984 | 105.39309 | 2219 ft | 134 kts | 75° |
| 2026-05-04 05:40 | 29.01265 | 105.40326 | 2052 ft | 134 kts | 76° |
| 2026-05-04 05:40 | 29.01544 | 105.41326 | 1862 ft | 132 kts | 75° |
| 2026-05-04 05:41 | 29.01815 | 105.42319 | 1715 ft | 133 kts | 73° |
| 2026-05-04 05:41 | 29.02089 | 105.43326 | 1505 ft | 132 kts | 76° |
| 2026-05-04 05:41 | 29.02366 | 105.44332 | 1357 ft | 132 kts | 73° |
| 2026-05-04 05:41 | 29.02641 | 105.45332 | 1188 ft | 132 kts | 75° |
| 2026-05-04 05:42 | 29.02901 | 105.46294 | 1102 ft | 113 kts | 72° |
| 2026-05-04 05:42 | 29.03085 | 105.46953 | 1099 ft | 62 kts | 72° |
| 2026-05-04 05:42 | 29.03172 | 105.47272 | 1102 ft | 27 kts | 73° |
| 2026-05-04 05:42 | 29.03206 | 105.47416 | 1103 ft | 15 kts | 82° |
| 2026-05-04 05:43 | 29.03210 | 105.47522 | 1106 ft | 12 kts | 95° |
| 2026-05-04 05:43 | 29.03197 | 105.47606 | 1103 ft | 10 kts | 101° |
| 2026-05-04 05:43 | 29.03183 | 105.47679 | 1099 ft | 10 kts | 102° |
| 2026-05-04 05:45 | 29.02925 | 105.46975 | 1099 ft | 27 kts | 252° |
| 2026-05-04 05:45 | 29.02871 | 105.46778 | 1098 ft | 25 kts | 252° |
| 2026-05-04 05:47 | 29.02552 | 105.46314 | 1098 ft | 9 kts | 253° |
| 2026-05-04 05:47 | 29.02533 | 105.46245 | 1101 ft | 8 kts | 251° |
| 2026-05-04 05:47 | 29.02524 | 105.46219 | 1099 ft | 2 kts | 240° |
| 2026-05-04 05:48 | 29.02511 | 105.46213 | 1100 ft | 6 kts | 193° |
| 2026-05-04 05:48 | 29.02477 | 105.46222 | 1102 ft | 5 kts | 163° |
| 2026-05-04 05:48 | 29.02450 | 105.46232 | 1102 ft | 0 kts | 162° |